Time;durP1;ratioP1;P1;durP2;ratioP2;P2;SDS_P1;SDS_P2;PMS_P1;PMS_P2;Temp;Humidity;BMP_temperature;BMP_pressure;BME280_temperature;BME280_humidity;BME280_pressure;Samples;Min_cycle;Max_cycle;Signal;HPM_P1;HPM_P2
2023/03/10 00:01:30;;;;;;;9.07;3.53;;;3.00;99.90;;;;;;5073868;28;20033;-75
2023/03/10 00:03:57;;;;;;;5.95;3.53;;;1.20;99.90;;;;;;5073519;28;20040;-75
2023/03/10 00:06:26;;;;;;;8.57;4.13;;;1.10;99.90;;;;;;5073718;28;20086;-75
2023/03/10 00:08:52;;;;;;;6.85;4.05;;;3.00;99.90;;;;;;5073704;28;20060;-74
2023/03/10 00:11:18;;;;;;;7.70;4.18;;;2.60;99.90;;;;;;5090362;28;20036;-75
2023/03/10 00:13:44;;;;;;;7.13;4.00;;;1.10;99.90;;;;;;5073837;28;20185;-75
2023/03/10 00:16:22;;;;;;;6.95;4.03;;;1.10;99.90;;;;;;5073664;28;20080;-75
2023/03/10 00:18:51;;;;;;;8.55;4.10;;;1.10;99.90;;;;;;5090171;28;20048;-76
2023/03/10 00:21:23;;;;;;;8.85;3.85;;;1.10;99.90;;;;;;5090171;28;20056;-74
2023/03/10 00:23:51;;;;;;;7.50;3.28;;;1.10;99.90;;;;;;5073632;28;20036;-74
2023/03/10 00:26:19;;;;;;;7.20;3.88;;;1.10;99.90;;;;;;5073251;28;20044;-74
2023/03/10 00:28:48;;;;;;;8.02;3.67;;;1.10;99.90;;;;;;5090367;28;20555;-75
2023/03/10 00:31:20;;;;;;;6.75;3.90;;;1.00;99.90;;;;;;5073561;28;20397;-75
2023/03/10 00:33:46;;;;;;;7.38;3.92;;;1.10;99.90;;;;;;5073210;28;20143;-75
2023/03/10 00:36:27;;;;;;;7.13;3.95;;;1.10;99.90;;;;;;5073167;28;20032;-75
2023/03/10 00:38:55;;;;;;;10.27;4.28;;;1.10;99.90;;;;;;5073201;28;20044;-75
2023/03/10 00:41:32;;;;;;;5.95;3.53;;;1.10;99.90;;;;;;5089962;28;20057;-74
2023/03/10 00:43:59;;;;;;;6.63;3.95;;;1.10;99.90;;;;;;5073174;28;20123;-76
2023/03/10 00:46:35;;;;;;;7.07;4.30;;;1.10;99.90;;;;;;5073074;28;20036;-74
2023/03/10 00:49:01;;;;;;;7.82;3.63;;;1.10;99.90;;;;;;5073405;28;20043;-75
2023/03/10 00:51:27;;;;;;;7.90;3.53;;;1.10;99.90;;;;;;5073027;28;20079;-75
2023/03/10 00:53:53;;;;;;;7.03;3.80;;;1.10;99.90;;;;;;5090014;28;20136;-75
2023/03/10 00:56:24;;;;;;;8.85;4.68;;;1.00;99.90;;;;;;5090217;28;20135;-75
2023/03/10 00:58:55;;;;;;;7.05;4.28;;;1.10;99.90;;;;;;5074249;28;20036;-74
2023/03/10 01:01:24;;;;;;;8.13;4.22;;;1.10;99.90;;;;;;5056753;28;20090;-75
2023/03/10 01:03:52;;;;;;;5.78;3.88;;;1.10;99.90;;;;;;5090734;28;20040;-75
2023/03/10 01:06:18;;;;;;;5.82;3.40;;;1.10;99.90;;;;;;5074667;28;20043;-76
2023/03/10 01:08:44;;;;;;;7.10;3.70;;;2.10;99.90;;;;;;5075306;28;20044;-75
2023/03/10 01:11:13;;;;;;;8.63;4.03;;;1.10;99.90;;;;;;5075967;28;20491;-76
2023/03/10 01:13:39;;;;;;;7.30;3.88;;;1.10;99.90;;;;;;5092992;28;20142;-75
2023/03/10 01:16:08;;;;;;;6.90;3.97;;;1.00;99.90;;;;;;5074975;28;20036;-74
2023/03/10 01:18:33;;;;;;;8.05;3.97;;;1.10;99.90;;;;;;5093446;28;20040;-75
2023/03/10 01:20:59;;;;;;;7.35;4.10;;;3.00;99.90;;;;;;5076641;28;20067;-76
2023/03/10 01:23:28;;;;;;;7.15;3.88;;;1.70;99.90;;;;;;5077682;28;20110;-75
2023/03/10 01:25:54;;;;;;;8.23;4.53;;;1.10;99.90;;;;;;5074365;28;20123;-75
2023/03/10 01:28:23;;;;;;;9.25;4.35;;;1.10;99.90;;;;;;5090800;28;20448;-75
2023/03/10 01:30:49;;;;;;;6.75;4.15;;;1.00;99.90;;;;;;5073451;28;20036;-75
2023/03/10 01:33:16;;;;;;;7.38;3.95;;;1.10;99.90;;;;;;5089843;28;20045;-75
2023/03/10 01:35:43;;;;;;;7.35;4.07;;;1.00;99.90;;;;;;5073275;28;20058;-75
2023/03/10 01:38:12;;;;;;;12.35;5.13;;;1.10;99.90;;;;;;5073048;28;20037;-75
2023/03/10 01:40:39;;;;;;;6.97;3.63;;;1.10;99.90;;;;;;5072502;28;20056;-74
2023/03/10 01:43:26;;;;;;;6.95;4.15;;;1.10;99.90;;;;;;5056210;28;20091;-75
2023/03/10 01:45:52;;;;;;;7.20;4.18;;;1.10;99.90;;;;;;5055744;28;20086;-75
2023/03/10 01:48:20;;;;;;;6.10;3.40;;;1.10;99.90;;;;;;5055740;28;20040;-75
2023/03/10 01:50:50;;;;;;;9.05;4.38;;;1.10;99.90;;;;;;5055944;28;20055;-75
2023/03/10 01:53:19;;;;;;;7.53;4.45;;;1.80;99.90;;;;;;5038716;28;20451;-75
2023/03/10 01:55:51;;;;;;;10.73;4.50;;;1.00;99.90;;;;;;5038482;28;20083;-75
2023/03/10 01:58:21;;;;;;;10.55;4.45;;;1.10;99.90;;;;;;5055203;28;20521;-75
2023/03/10 02:00:46;;;;;;;7.35;4.35;;;1.10;99.90;;;;;;5038300;28;20055;-75
2023/03/10 02:03:23;;;;;;;10.02;4.82;;;1.10;99.90;;;;;;5055292;28;20028;-75
2023/03/10 02:05:57;;;;;;;12.15;5.47;;;1.10;99.90;;;;;;5054901;28;20051;-75
2023/03/10 02:08:24;;;;;;;8.73;4.45;;;1.10;99.90;;;;;;5055125;28;20119;-75
2023/03/10 02:10:53;;;;;;;7.60;4.25;;;1.10;99.90;;;;;;5038481;28;20043;-75
2023/03/10 02:13:22;;;;;;;10.27;5.85;;;1.10;99.90;;;;;;5055192;28;20032;-75
2023/03/10 02:15:48;;;;;;;8.00;4.80;;;1.10;99.90;;;;;;5055137;28;20507;-75
2023/03/10 02:18:15;;;;;;;8.20;5.13;;;1.10;99.90;;;;;;5055047;28;20488;-75
2023/03/10 02:20:50;;;;;;;11.52;5.32;;;1.10;99.90;;;;;;5054852;28;20492;-75
2023/03/10 02:23:28;;;;;;;12.02;5.05;;;1.00;99.90;;;;;;5054585;28;20048;-75
2023/03/10 02:26:04;;;;;;;15.93;6.10;;;1.10;99.90;;;;;;5054634;28;20051;-75
2023/03/10 02:28:32;;;;;;;10.82;5.45;;;1.10;99.90;;;;;;5055891;28;20408;-75
2023/03/10 02:30:59;;;;;;;10.18;5.78;;;1.10;99.90;;;;;;5058771;28;20044;-76
2023/03/10 02:33:27;;;;;;;12.05;6.05;;;1.10;99.90;;;;;;5058731;28;20040;-75
2023/03/10 02:35:53;;;;;;;11.02;5.88;;;1.10;99.90;;;;;;5042036;28;20037;-75
2023/03/10 02:38:19;;;;;;;9.40;4.95;;;1.10;99.90;;;;;;5042426;28;20044;-75
2023/03/10 02:40:51;;;;;;;13.18;5.50;;;1.10;99.90;;;;;;5061091;28;20127;-76
2023/03/10 02:43:19;;;;;;;8.10;5.47;;;1.10;99.90;;;;;;5075284;28;20048;-75
2023/03/10 02:45:47;;;;;;;8.98;4.75;;;1.10;99.90;;;;;;5075235;28;20043;-76
2023/03/10 02:48:19;;;;;;;11.30;5.85;;;1.10;99.90;;;;;;5075171;28;20041;-75
2023/03/10 02:50:48;;;;;;;11.25;5.05;;;1.10;99.90;;;;;;5075820;28;20087;-76
2023/03/10 02:53:18;;;;;;;9.98;4.88;;;1.10;99.90;;;;;;5092166;28;20090;-76
2023/03/10 02:55:44;;;;;;;10.07;4.72;;;1.10;99.90;;;;;;5075213;28;20039;-75
2023/03/10 02:58:16;;;;;;;10.73;4.45;;;1.00;99.90;;;;;;5075164;28;20041;-75
2023/03/10 03:00:47;;;;;;;11.30;5.13;;;1.10;99.90;;;;;;5075888;28;20037;-75
2023/03/10 03:03:27;;;;;;;10.43;5.03;;;1.10;99.90;;;;;;5074757;28;20441;-75
2023/03/10 03:06:00;;;;;;;5.75;3.67;;;1.10;99.90;;;;;;5075437;28;20507;-75
2023/03/10 03:08:27;;;;;;;10.43;4.85;;;1.00;99.90;;;;;;5074775;28;20079;-75
2023/03/10 03:10:53;;;;;;;6.72;4.28;;;1.00;99.90;;;;;;5074849;28;20040;-75
2023/03/10 03:13:23;;;;;;;7.85;4.22;;;1.00;99.90;;;;;;5091910;28;20549;-75
2023/03/10 03:15:49;;;;;;;8.68;5.05;;;1.00;99.90;;;;;;5074689;28;20047;-75
2023/03/10 03:18:15;;;;;;;6.68;3.88;;;1.00;99.90;;;;;;5074613;28;20123;-75
2023/03/10 03:20:44;;;;;;;5.50;3.38;;;1.00;99.90;;;;;;5074826;28;20076;-75
2023/03/10 03:23:10;;;;;;;8.38;3.80;;;1.00;99.90;;;;;;5057754;28;20518;-75
2023/03/10 03:25:46;;;;;;;7.85;4.25;;;1.00;99.90;;;;;;5074664;28;20156;-74
2023/03/10 03:28:12;;;;;;;8.20;3.55;;;1.00;99.90;;;;;;5057652;28;20040;-75
2023/03/10 03:30:39;;;;;;;9.68;3.78;;;1.00;99.90;;;;;;5091459;28;20518;-74
2023/03/10 03:33:06;;;;;;;6.53;3.75;;;1.00;99.90;;;;;;5091512;28;20048;-75
2023/03/10 03:35:39;;;;;;;11.52;4.82;;;1.00;99.90;;;;;;5091210;28;20245;-75
2023/03/10 03:38:05;;;;;;;8.02;3.55;;;1.00;99.90;;;;;;5074370;28;20040;-75
2023/03/10 03:40:34;;;;;;;7.88;3.22;;;1.00;99.90;;;;;;5092200;28;20414;-75
2023/03/10 03:43:00;;;;;;;8.18;4.13;;;1.00;99.90;;;;;;5077587;28;20048;-75
2023/03/10 03:45:27;;;;;;;7.90;3.55;;;0.90;99.90;;;;;;5077513;28;20044;-75
2023/03/10 03:47:57;;;;;;;10.77;4.15;;;0.90;99.90;;;;;;5077566;28;20375;-74
2023/03/10 03:50:23;;;;;;;5.57;3.60;;;0.90;99.90;;;;;;5077415;28;20035;-75
2023/03/10 03:52:49;;;;;;;8.65;3.92;;;0.90;99.90;;;;;;5077619;28;20123;-75
2023/03/10 03:55:25;;;;;;;8.32;3.72;;;1.00;99.90;;;;;;5077485;28;20036;-75
2023/03/10 03:57:57;;;;;;;7.55;4.00;;;0.90;99.90;;;;;;5077476;28;20036;-75
2023/03/10 04:00:35;;;;;;;7.57;4.22;;;1.00;99.90;;;;;;5060333;28;20051;-75
2023/03/10 04:03:04;;;;;;;6.10;3.20;;;0.90;99.90;;;;;;5061093;28;20480;-76
2023/03/10 04:05:33;;;;;;;6.50;3.72;;;0.90;99.90;;;;;;5077523;28;20097;-75
2023/03/10 04:08:06;;;;;;;8.35;4.38;;;1.20;99.90;;;;;;5076288;28;20048;-75
2023/03/10 04:10:31;;;;;;;8.02;3.83;;;0.90;99.90;;;;;;5077028;28;20036;-75
2023/03/10 04:12:57;;;;;;;7.75;3.75;;;1.00;99.90;;;;;;5077020;28;20376;-75
2023/03/10 04:15:23;;;;;;;5.70;3.38;;;1.00;99.90;;;;;;5076959;28;20040;-75
2023/03/10 04:17:49;;;;;;;9.35;4.07;;;0.90;99.90;;;;;;5076863;28;20036;-75
2023/03/10 04:20:36;;;;;;;7.90;3.80;;;1.40;99.90;;;;;;5077039;28;20517;-75
2023/03/10 04:23:03;;;;;;;6.28;3.25;;;0.90;99.90;;;;;;5076960;28;20039;-75
2023/03/10 04:25:32;;;;;;;8.05;3.67;;;1.10;99.90;;;;;;5076995;28;20459;-76
2023/03/10 04:27:58;;;;;;;5.38;3.17;;;1.00;99.90;;;;;;5059976;28;20044;-75
2023/03/10 04:30:28;;;;;;;6.25;3.28;;;1.00;99.90;;;;;;5076648;28;20389;-75
2023/03/10 04:33:00;;;;;;;13.33;4.27;;;0.90;99.90;;;;;;5076503;28;20036;-75
2023/03/10 04:35:27;;;;;;;7.55;4.13;;;1.00;99.90;;;;;;5076454;28;20411;-75
2023/03/10 04:37:59;;;;;;;7.13;3.92;;;1.00;99.90;;;;;;5076461;28;20122;-75
2023/03/10 04:40:34;;;;;;;9.82;3.97;;;1.00;99.90;;;;;;5059564;28;20491;-75
2023/03/10 04:43:00;;;;;;;5.57;3.22;;;1.00;99.90;;;;;;5076249;28;20055;-75
2023/03/10 04:45:26;;;;;;;8.43;3.50;;;2.70;99.90;;;;;;5076290;28;20411;-75
2023/03/10 04:47:51;;;;;;;6.45;4.10;;;1.00;99.90;;;;;;5076285;28;20516;-75
2023/03/10 04:50:21;;;;;;;9.90;4.10;;;1.00;99.90;;;;;;5076117;28;20050;-75
2023/03/10 04:52:48;;;;;;;9.10;4.45;;;0.90;99.90;;;;;;5058996;28;20039;-75
2023/03/10 04:55:56;;;;;;;;;;;;;;;;;;;;;
2023/03/10 04:58:23;;;;;;;8.77;4.65;;;1.00;99.90;;;;;;5092740;28;20032;-75
2023/03/10 05:01:10;;;;;;;9.57;4.97;;;1.00;99.90;;;;;;5075981;28;20054;-75
2023/03/10 05:03:36;;;;;;;9.25;4.03;;;0.90;99.90;;;;;;5076186;28;20051;-75
2023/03/10 05:06:28;;;;;;;10.13;4.55;;;1.00;99.90;;;;;;5075900;28;20040;-75
2023/03/10 05:09:07;;;;;;;10.00;4.75;;;0.90;99.90;;;;;;5059540;28;20043;-75
2023/03/10 05:11:42;;;;;;;11.00;4.45;;;0.90;99.90;;;;;;5059142;28;20040;-75
2023/03/10 05:14:17;;;;;;;10.48;4.72;;;0.90;99.90;;;;;;5075795;28;20055;-75
2023/03/10 05:16:43;;;;;;;13.07;5.10;;;0.90;99.90;;;;;;5076063;28;20579;-75
2023/03/10 05:19:15;;;;;;;11.60;4.75;;;0.90;99.90;;;;;;5075570;28;20122;-75
2023/03/10 05:22:01;;;;;;;10.63;4.93;;;1.00;99.90;;;;;;5075334;28;20051;-75
2023/03/10 05:24:27;;;;;;;18.35;6.05;;;0.90;99.90;;;;;;5075836;28;20032;-75
2023/03/10 05:26:53;;;;;;;12.30;5.20;;;1.00;99.90;;;;;;5059013;28;20051;-75
2023/03/10 05:29:26;;;;;;;14.73;5.25;;;0.90;99.90;;;;;;5075431;28;20040;-75
2023/03/10 05:32:00;;;;;;;12.95;6.03;;;0.90;99.90;;;;;;5058913;28;20036;-75
2023/03/10 05:34:33;;;;;;;11.85;6.20;;;-0.50;99.90;;;;;;5075611;28;20499;-75
2023/03/10 05:37:02;;;;;;;11.00;5.28;;;0.90;99.90;;;;;;5058591;28;20063;-75
2023/03/10 05:39:34;;;;;;;14.73;6.07;;;0.50;99.90;;;;;;5058540;28;20507;-75
2023/03/10 05:42:05;;;;;;;12.20;5.93;;;0.90;99.90;;;;;;5074991;28;20467;-76
2023/03/10 05:44:38;;;;;;;12.10;5.18;;;0.90;99.90;;;;;;5075245;28;20122;-73
2023/03/10 05:47:08;;;;;;;10.93;6.38;;;0.90;99.90;;;;;;5075178;28;20075;-75
2023/03/10 05:49:37;;;;;;;15.02;6.95;;;0.90;99.90;;;;;;5075119;28;20040;-76
2023/03/10 05:52:06;;;;;;;13.63;5.50;;;0.90;99.90;;;;;;5075206;28;20043;-75
2023/03/10 05:54:38;;;;;;;10.05;5.13;;;0.90;99.90;;;;;;5075315;28;20441;-74
2023/03/10 05:57:04;;;;;;;14.25;6.63;;;0.90;99.90;;;;;;5058285;28;20048;-76
2023/03/10 05:59:33;;;;;;;19.08;6.95;;;0.90;99.90;;;;;;5075078;28;20092;-75
2023/03/10 06:01:59;;;;;;;13.30;5.25;;;0.90;99.90;;;;;;5074844;28;20142;-74
2023/03/10 06:04:27;;;;;;;16.02;6.82;;;0.90;99.90;;;;;;5074956;28;20502;-73
2023/03/10 06:06:54;;;;;;;13.18;6.35;;;0.90;99.90;;;;;;5074882;28;20051;-75
2023/03/10 06:09:23;;;;;;;15.55;7.25;;;0.90;99.90;;;;;;5074864;28;20040;-74
2023/03/10 06:11:48;;;;;;;12.75;6.80;;;0.70;99.90;;;;;;5075032;28;20517;-74
2023/03/10 06:14:14;;;;;;;15.18;7.25;;;0.90;99.90;;;;;;5075157;28;20083;-74
2023/03/10 06:16:40;;;;;;;14.90;7.03;;;0.90;99.90;;;;;;5074765;28;20055;-75
2023/03/10 06:19:09;;;;;;;17.48;8.77;;;1.00;99.90;;;;;;5058486;28;20478;-74
2023/03/10 06:21:40;;;;;;;15.57;7.50;;;0.90;99.90;;;;;;5057902;28;20043;-77
2023/03/10 06:24:09;;;;;;;19.08;7.03;;;0.30;99.90;;;;;;5057993;28;20162;-75
2023/03/10 06:26:38;;;;;;;17.73;8.00;;;1.00;99.90;;;;;;5058189;28;20028;-73
2023/03/10 06:29:04;;;;;;;17.90;6.90;;;1.00;99.90;;;;;;5058066;28;20070;-78
2023/03/10 06:31:33;;;;;;;18.08;8.57;;;2.20;99.90;;;;;;5074947;28;20475;-78
2023/03/10 06:33:59;;;;;;;17.67;8.13;;;1.00;99.90;;;;;;5074660;28;20036;-78
2023/03/10 06:36:30;;;;;;;13.57;7.43;;;1.00;99.90;;;;;;5074701;28;20043;-77
2023/03/10 06:38:59;;;;;;;15.00;7.68;;;1.00;99.90;;;;;;5058325;28;20046;-74
2023/03/10 06:41:27;;;;;;;17.05;8.35;;;1.00;99.90;;;;;;5054098;28;20416;-75
2023/03/10 06:43:53;;;;;;;14.52;7.03;;;1.00;99.90;;;;;;5071284;28;20051;-75
2023/03/10 06:46:19;;;;;;;12.05;6.97;;;1.30;99.90;;;;;;5070971;28;20044;-78
2023/03/10 06:48:49;;;;;;;20.67;7.40;;;1.00;99.90;;;;;;5071112;28;20045;-78
2023/03/10 06:51:23;;;;;;;18.65;7.57;;;0.90;99.90;;;;;;5071376;28;20041;-75
2023/03/10 06:53:48;;;;;;;21.70;7.53;;;1.10;99.90;;;;;;5071708;28;20534;-72
2023/03/10 06:56:20;;;;;;;18.17;8.05;;;1.00;99.90;;;;;;5054712;28;20044;-78
2023/03/10 06:58:49;;;;;;;14.40;7.13;;;1.10;99.90;;;;;;5071115;28;20091;-77
2023/03/10 07:01:29;;;;;;;16.77;7.20;;;2.60;99.90;;;;;;5071070;28;20036;-77
2023/03/10 07:03:59;;;;;;;15.40;6.35;;;1.20;99.90;;;;;;5071360;28;20433;-76
2023/03/10 07:06:34;;;;;;;12.00;6.53;;;1.20;99.90;;;;;;5071292;28;20033;-75
2023/03/10 07:09:02;;;;;;;15.35;6.63;;;1.20;99.90;;;;;;5071287;28;20036;-75
2023/03/10 07:11:34;;;;;;;12.80;6.57;;;1.20;99.90;;;;;;5071067;28;20076;-77
2023/03/10 07:13:59;;;;;;;13.48;6.40;;;1.40;99.90;;;;;;5071196;28;20044;-74
2023/03/10 07:16:29;;;;;;;12.60;5.85;;;1.30;99.90;;;;;;5057670;28;20056;-73
2023/03/10 07:18:54;;;;;;;9.88;5.50;;;1.30;99.90;;;;;;5074833;28;20484;-73
2023/03/10 07:21:23;;;;;;;12.77;6.32;;;1.30;99.90;;;;;;5074380;28;20040;-73
2023/03/10 07:23:49;;;;;;;12.18;6.30;;;1.30;99.90;;;;;;5074386;28;20437;-74
2023/03/10 07:26:24;;;;;;;12.70;5.45;;;1.30;99.90;;;;;;5073895;28;20514;-73
2023/03/10 07:28:53;;;;;;;13.15;5.45;;;1.30;99.90;;;;;;5057640;28;20033;-73
2023/03/10 07:31:33;;;;;;;13.93;5.97;;;1.40;99.90;;;;;;5016434;28;20057;-73
2023/03/10 07:34:00;;;;;;;11.20;5.75;;;2.00;99.90;;;;;;5017020;28;20038;-73
2023/03/10 07:36:28;;;;;;;11.75;5.32;;;1.30;99.90;;;;;;5000624;28;20635;-73
2023/03/10 07:38:56;;;;;;;7.63;4.15;;;1.40;99.90;;;;;;5017089;28;20504;-73
2023/03/10 07:41:26;;;;;;;9.07;4.47;;;1.40;99.90;;;;;;5010592;28;20061;-74
2023/03/10 07:43:54;;;;;;;13.25;6.70;;;1.40;99.90;;;;;;4997040;28;20133;-74
2023/03/10 07:46:21;;;;;;;11.05;5.45;;;3.50;99.90;;;;;;4996941;28;20056;-74
2023/03/10 07:48:58;;;;;;;12.45;5.35;;;3.00;99.90;;;;;;4996924;28;20048;-73
2023/03/10 07:51:37;;;;;;;12.07;5.97;;;1.50;99.90;;;;;;4997231;28;20062;-73
2023/03/10 07:54:03;;;;;;;10.20;5.32;;;1.50;99.90;;;;;;4997049;28;20524;-73
2023/03/10 07:56:31;;;;;;;11.95;6.13;;;1.40;99.90;;;;;;5013388;28;20094;-73
2023/03/10 07:59:09;;;;;;;12.20;5.43;;;1.50;99.90;;;;;;4980965;28;20091;-73
2023/03/10 08:01:51;;;;;;;;;;;;;;;;;;;;;
2023/03/10 08:04:18;;;;;;;9.18;4.97;;;1.50;99.90;;;;;;5057024;28;20051;-74
2023/03/10 08:07:00;;;;;;;8.68;4.72;;;1.50;99.90;;;;;;5040362;28;20128;-75
2023/03/10 08:09:56;;;;;;;11.02;5.43;;;1.50;99.90;;;;;;5040953;28;20542;-74
2023/03/10 08:12:32;;;;;;;11.40;5.95;;;1.50;99.90;;;;;;5033919;28;20504;-74
2023/03/10 08:14:58;;;;;;;10.40;4.93;;;1.50;99.90;;;;;;5057059;28;20549;-74
2023/03/10 08:17:32;;;;;;;11.23;5.28;;;1.50;99.90;;;;;;5055849;28;20136;-74
2023/03/10 08:20:15;;;;;;;13.05;5.55;;;1.50;99.90;;;;;;5056540;28;20052;-74
2023/03/10 08:22:44;;;;;;;11.77;6.32;;;1.50;99.90;;;;;;5056651;28;20393;-73
2023/03/10 08:25:19;;;;;;;10.95;5.43;;;1.50;99.90;;;;;;5056755;28;20415;-74
2023/03/10 08:28:07;;;;;;;12.05;5.95;;;1.50;99.90;;;;;;5040176;28;20082;-74
2023/03/10 08:30:39;;;;;;;10.25;5.20;;;1.40;99.90;;;;;;5040093;28;20036;-73
2023/03/10 08:33:09;;;;;;;11.82;6.45;;;1.10;99.90;;;;;;5040022;28;20036;-73
2023/03/10 08:35:36;;;;;;;8.95;5.60;;;2.00;99.90;;;;;;5039800;28;20039;-72
2023/03/10 08:38:03;;;;;;;12.68;5.82;;;1.10;99.90;;;;;;5056263;28;20041;-74
2023/03/10 08:40:29;;;;;;;10.25;5.25;;;2.10;99.90;;;;;;5056244;28;20036;-74
2023/03/10 08:42:54;;;;;;;10.90;5.82;;;1.60;99.90;;;;;;5075064;28;20511;-74
2023/03/10 08:45:20;;;;;;;11.18;5.43;;;1.60;99.90;;;;;;5076088;28;20036;-75
2023/03/10 08:47:46;;;;;;;11.05;5.63;;;1.60;99.90;;;;;;5059798;28;20502;-75
2023/03/10 08:50:12;;;;;;;10.48;5.68;;;1.60;99.90;;;;;;5076124;28;20036;-75
2023/03/10 08:52:38;;;;;;;14.48;5.13;;;1.60;99.90;;;;;;5076088;28;20075;-74
2023/03/10 08:55:07;;;;;;;7.78;4.35;;;1.60;99.90;;;;;;5059187;28;20082;-75
2023/03/10 08:57:33;;;;;;;10.02;4.82;;;1.60;99.90;;;;;;5075946;28;20075;-73
2023/03/10 08:59:59;;;;;;;12.63;5.70;;;1.60;99.90;;;;;;5076105;28;20040;-74
2023/03/10 09:02:28;;;;;;;11.40;5.63;;;1.70;99.90;;;;;;5075781;28;20039;-74
2023/03/10 09:04:53;;;;;;;9.50;4.60;;;1.70;99.90;;;;;;5075891;28;20101;-75
2023/03/10 09:07:19;;;;;;;12.75;5.38;;;1.70;99.90;;;;;;5075781;28;20047;-75
2023/03/10 09:09:44;;;;;;;8.18;4.70;;;1.70;99.90;;;;;;5075767;28;20036;-74
2023/03/10 09:12:13;;;;;;;12.52;5.60;;;1.70;99.90;;;;;;5075735;28;20051;-75
2023/03/10 09:14:39;;;;;;;8.88;5.10;;;1.70;99.90;;;;;;5075646;28;20036;-75
2023/03/10 09:17:04;;;;;;;9.93;5.25;;;1.70;99.90;;;;;;5075905;28;20498;-74
2023/03/10 09:19:30;;;;;;;9.70;5.15;;;1.80;99.90;;;;;;5075319;28;20075;-75
2023/03/10 09:21:58;;;;;;;10.55;4.93;;;1.70;99.90;;;;;;5058854;28;20036;-75
2023/03/10 09:24:24;;;;;;;12.18;5.53;;;1.80;99.90;;;;;;5075682;28;20138;-75
2023/03/10 09:27:01;;;;;;;;;;;;;;;;;;;;;
2023/03/10 09:29:33;;;;;;;12.52;5.18;;;1.80;99.90;;;;;;5075360;28;20047;-75
2023/03/10 09:31:58;;;;;;;12.25;5.50;;;1.90;99.90;;;;;;5075660;28;20110;-75
2023/03/10 09:34:26;;;;;;;11.15;6.22;;;1.90;99.90;;;;;;5075378;28;20044;-75
2023/03/10 09:36:52;;;;;;;16.40;5.85;;;1.90;99.90;;;;;;5058491;28;20499;-76
2023/03/10 09:39:18;;;;;;;11.55;6.28;;;1.90;99.90;;;;;;5075204;28;20044;-75
2023/03/10 09:41:55;;;;;;;11.48;5.68;;;3.10;99.90;;;;;;5075064;28;20498;-75
2023/03/10 09:44:38;;;;;;;11.85;6.10;;;1.90;99.90;;;;;;5075401;28;20090;-76
2023/03/10 09:47:06;;;;;;;12.00;5.57;;;1.90;99.90;;;;;;5091994;28;20044;-75
2023/03/10 09:49:38;;;;;;;15.80;6.53;;;1.90;99.90;;;;;;5075066;28;20085;-75
2023/03/10 09:52:33;;;;;;;;;;;1.90;99.90;;;;;;5058817;28;20040;-75
2023/03/10 09:55:39;;;;;;;12.25;5.55;;;1.90;99.90;;;;;;5061917;28;19922;-76
2023/03/10 09:58:14;;;;;;;12.10;6.38;;;1.90;99.90;;;;;;5074964;28;20044;-75
2023/03/10 10:00:59;;;;;;;14.00;6.63;;;1.90;99.90;;;;;;5058510;28;20097;-74
2023/03/10 10:03:48;;;;;;;17.65;6.22;;;2.00;99.90;;;;;;5073364;28;20040;-74
2023/03/10 10:06:31;;;;;;;10.55;6.25;;;3.00;99.90;;;;;;5075226;28;20044;-74
2023/03/10 10:09:11;;;;;;;11.45;6.30;;;2.10;99.90;;;;;;5057152;28;20040;-74
2023/03/10 10:11:40;;;;;;;11.98;5.80;;;2.10;99.90;;;;;;5075096;28;20048;-75
2023/03/10 10:14:37;;;;;;;15.07;6.18;;;2.10;99.90;;;;;;5075182;28;20047;-75
2023/03/10 10:17:48;;;;;;;14.68;6.45;;;2.10;99.90;;;;;;5074884;28;20047;-75
2023/03/10 10:20:47;;;;;;;12.85;6.15;;;2.10;99.90;;;;;;5057808;28;20050;-75
2023/03/10 10:24:00;;;;;;;13.05;7.07;;;2.20;99.90;;;;;;5075033;28;20051;-75
2023/03/10 10:29:45;;;;;;;12.30;5.85;;;2.20;99.90;;;;;;5072707;28;20040;-74
2023/03/10 10:32:17;;;;;;;11.68;6.40;;;2.20;99.90;;;;;;5092014;28;20059;-75
2023/03/10 10:35:23;;;;;;;16.08;6.45;;;2.10;99.90;;;;;;5074708;28;20063;-75
2023/03/10 10:38:23;;;;;;;16.23;6.60;;;2.10;99.90;;;;;;5058319;28;20032;-74
2023/03/10 10:41:32;;;;;;;14.23;6.53;;;2.20;99.90;;;;;;5058443;28;20089;-75
2023/03/10 10:44:16;;;;;;;11.18;5.50;;;2.20;99.90;;;;;;4999050;28;20050;-75
2023/03/10 10:47:41;;;;;;;16.50;6.68;;;2.20;99.90;;;;;;5072972;28;20044;-74
2023/03/10 10:50:38;;;;;;;14.38;6.38;;;2.20;99.90;;;;;;5059688;28;20483;-75
2023/03/10 10:53:44;;;;;;;;;;;;;;;;;;;;;
2023/03/10 10:57:17;;;;;;;18.58;6.40;;;2.10;99.90;;;;;;5095990;28;20044;-75
2023/03/10 10:59:45;;;;;;;13.95;6.57;;;2.10;99.90;;;;;;5061146;28;20059;-75
2023/03/10 11:02:33;;;;;;;12.30;6.25;;;2.10;99.90;;;;;;5061642;28;20036;-75
2023/03/10 11:05:56;;;;;;;13.70;6.68;;;2.10;99.90;;;;;;5061693;28;20047;-72
2023/03/10 11:08:33;;;;;;;13.80;6.45;;;2.20;99.90;;;;;;5077927;28;20047;-75
2023/03/10 11:11:32;;;;;;;11.55;5.47;;;2.20;99.90;;;;;;5061657;28;20459;-73
2023/03/10 11:14:39;;;;;;;16.50;6.78;;;2.20;99.90;;;;;;5077951;28;20047;-74
2023/03/10 11:17:24;;;;;;;11.00;5.85;;;2.20;99.90;;;;;;5078128;28;20491;-73
2023/03/10 11:20:25;;;;;;;16.08;6.32;;;2.10;99.90;;;;;;5077837;28;20047;-73
2023/03/10 11:23:29;;;;;;;12.85;5.35;;;2.10;99.90;;;;;;5054164;28;20051;-74
2023/03/10 11:26:39;;;;;;;;;;;;;;;;;;;;;
2023/03/10 11:29:41;;;;;;;14.85;6.35;;;2.00;99.90;;;;;;5077963;28;20040;-74
2023/03/10 11:32:33;;;;;;;10.85;5.80;;;2.00;99.90;;;;;;5077699;28;20085;-74
2023/03/10 11:35:23;;;;;;;11.00;5.78;;;2.00;99.90;;;;;;5077815;28;20177;-74
2023/03/10 11:38:16;;;;;;;15.48;6.00;;;2.00;99.90;;;;;;5077136;28;20514;-74
2023/03/10 11:40:52;;;;;;;12.90;6.38;;;2.00;99.90;;;;;;5077430;28;20063;-74
2023/03/10 11:44:14;;;;;;;10.10;4.85;;;3.20;99.90;;;;;;5094582;28;20043;-74
2023/03/10 11:46:45;;;;;;;;;;;2.10;99.90;;;;;;5017333;28;20124;-73
2023/03/10 11:49:15;;;;;;;11.73;5.68;;;1.40;99.90;;;;;;5058615;28;20291;-74
2023/03/10 11:51:53;;;;;;;9.27;5.07;;;2.00;99.90;;;;;;5060937;28;20040;-74
2023/03/10 11:54:34;;;;;;;12.20;6.03;;;1.90;99.90;;;;;;5060686;28;20046;-74
2023/03/10 11:57:12;;;;;;;14.45;6.28;;;1.90;99.90;;;;;;5060479;28;20040;-73
2023/03/10 11:59:49;;;;;;;15.20;6.50;;;1.80;99.90;;;;;;5076838;28;20044;-74
2023/03/10 12:02:28;;;;;;;11.25;5.13;;;1.90;99.90;;;;;;5076990;28;20055;-74
2023/03/10 12:05:20;;;;;;;13.05;5.35;;;1.60;99.90;;;;;;5077248;28;20043;-73
2023/03/10 12:07:57;;;;;;;12.63;6.57;;;2.00;99.90;;;;;;5060569;28;20483;-73
2023/03/10 12:10:48;;;;;;;14.50;6.00;;;2.00;99.90;;;;;;5077177;28;20047;-73
2023/03/10 12:13:36;;;;;;;13.43;6.37;;;2.00;99.90;;;;;;5076720;28;20046;-73
2023/03/10 12:16:09;;;;;;;10.63;6.03;;;2.00;99.90;;;;;;5060760;28;20036;-73
2023/03/10 12:18:36;;;;;;;16.35;6.78;;;1.90;99.90;;;;;;5077406;28;20127;-73
2023/03/10 12:21:18;;;;;;;12.52;6.07;;;1.90;99.90;;;;;;5076651;28;20044;-73
2023/03/10 12:23:53;;;;;;;11.55;5.82;;;1.90;99.90;;;;;;5077059;28;20570;-73
2023/03/10 12:26:41;;;;;;;13.25;6.90;;;1.90;99.90;;;;;;5060031;28;20032;-73
2023/03/10 12:29:50;;;;;;;10.63;6.38;;;1.90;99.90;;;;;;5076798;28;20044;-73
2023/03/10 12:32:49;;;;;;;15.43;6.32;;;1.90;99.90;;;;;;5076511;28;20047;-73
2023/03/10 12:35:27;;;;;;;12.57;6.28;;;1.90;99.90;;;;;;5060150;28;20398;-73
2023/03/10 12:38:40;;;;;;;13.20;5.72;;;1.90;99.90;;;;;;5076448;28;20075;-73
2023/03/10 12:41:09;;;;;;;9.43;4.97;;;1.90;99.90;;;;;;5015111;28;20192;-74
2023/03/10 12:43:45;;;;;;;12.90;6.05;;;2.10;99.90;;;;;;5009605;28;20047;-73
2023/03/10 12:46:40;;;;;;;11.68;6.05;;;1.90;99.90;;;;;;5056256;28;20041;-73
2023/03/10 12:49:28;;;;;;;13.90;5.88;;;1.80;99.90;;;;;;5048076;28;20059;-73
2023/03/10 12:52:24;;;;;;;12.82;5.78;;;1.80;99.90;;;;;;5056060;28;20041;-73
2023/03/10 12:55:23;;;;;;;20.15;6.40;;;1.80;99.90;;;;;;5070580;28;20457;-73
2023/03/10 12:57:53;;;;;;;10.10;5.55;;;1.80;99.90;;;;;;5055762;28;20093;-73
2023/03/10 13:00:28;;;;;;;10.23;5.72;;;2.00;99.90;;;;;;5056234;28;20511;-73
2023/03/10 13:03:10;;;;;;;17.25;6.45;;;2.70;99.90;;;;;;5055869;28;20062;-73
2023/03/10 13:06:02;;;;;;;10.15;6.00;;;2.00;99.90;;;;;;5056284;28;20393;-74
2023/03/10 13:08:45;;;;;;;10.02;4.90;;;2.00;99.90;;;;;;5052851;28;20048;-75
2023/03/10 13:11:43;;;;;;;12.25;5.07;;;2.00;99.90;;;;;;5055785;28;20395;-72
2023/03/10 13:14:31;;;;;;;12.73;5.82;;;2.10;99.90;;;;;;5055551;28;20048;-72
2023/03/10 13:17:22;;;;;;;11.30;5.72;;;1.80;99.90;;;;;;5056106;28;20381;-72
2023/03/10 13:20:24;;;;;;;10.52;4.40;;;2.20;99.90;;;;;;5038880;28;20382;-74
2023/03/10 13:22:58;;;;;;;12.68;5.95;;;2.20;99.90;;;;;;5055371;28;20044;-72
2023/03/10 13:25:24;;;;;;;10.88;5.03;;;2.20;99.90;;;;;;5055844;28;20040;-73
2023/03/10 13:28:15;;;;;;;12.52;5.82;;;2.20;99.90;;;;;;5055819;28;20043;-72
2023/03/10 13:30:44;;;;;;;10.48;4.93;;;2.20;99.90;;;;;;5055321;28;20040;-72
2023/03/10 13:33:20;;;;;;;11.35;5.80;;;2.30;99.90;;;;;;5039264;28;20557;-72
2023/03/10 13:35:49;;;;;;;9.10;4.75;;;2.20;99.90;;;;;;5039406;28;20388;-72
2023/03/10 13:38:25;;;;;;;9.23;5.22;;;2.20;99.90;;;;;;5055516;28;20036;-72
2023/03/10 13:41:01;;;;;;;9.02;5.28;;;2.20;99.90;;;;;;5055377;28;20499;-72